sensor_id;sensor_type;location;lat;lon;timestamp;P1;durP1;ratioP1;P2;durP2;ratioP2
32874;SDS011;40468;42.128;24.750;2023-02-04T00:00:00;13.63;;;6.32;;
32874;SDS011;40468;42.128;24.750;2023-02-04T00:01:31;17.52;;;6.25;;
32874;SDS011;40468;42.128;24.750;2023-02-04T00:03:03;10.73;;;5.70;;
32874;SDS011;40468;42.128;24.750;2023-02-04T00:04:35;16.55;;;6.55;;
32874;SDS011;40468;42.128;24.750;2023-02-04T00:06:06;17.50;;;6.72;;
32874;SDS011;40468;42.128;24.750;2023-02-04T00:07:38;16.73;;;7.13;;
32874;SDS011;40468;42.128;24.750;2023-02-04T00:09:10;19.77;;;8.57;;
32874;SDS011;40468;42.128;24.750;2023-02-04T00:10:42;18.52;;;8.38;;
32874;SDS011;40468;42.128;24.750;2023-02-04T00:12:14;19.63;;;8.48;;
32874;SDS011;40468;42.128;24.750;2023-02-04T00:13:47;20.02;;;8.80;;
32874;SDS011;40468;42.128;24.750;2023-02-04T00:15:19;21.33;;;8.63;;
32874;SDS011;40468;42.128;24.750;2023-02-04T00:16:51;17.27;;;8.65;;
32874;SDS011;40468;42.128;24.750;2023-02-04T00:18:22;14.90;;;7.05;;
32874;SDS011;40468;42.128;24.750;2023-02-04T00:19:54;16.33;;;7.68;;
32874;SDS011;40468;42.128;24.750;2023-02-04T00:21:26;15.70;;;6.20;;
32874;SDS011;40468;42.128;24.750;2023-02-04T00:22:58;16.30;;;7.10;;
32874;SDS011;40468;42.128;24.750;2023-02-04T00:24:30;20.58;;;6.78;;
32874;SDS011;40468;42.128;24.750;2023-02-04T00:26:02;15.32;;;6.57;;
32874;SDS011;40468;42.128;24.750;2023-02-04T00:27:34;12.15;;;5.82;;
32874;SDS011;40468;42.128;24.750;2023-02-04T00:29:07;13.18;;;6.47;;
32874;SDS011;40468;42.128;24.750;2023-02-04T00:30:39;10.45;;;5.28;;
32874;SDS011;40468;42.128;24.750;2023-02-04T00:32:11;13.68;;;5.88;;
32874;SDS011;40468;42.128;24.750;2023-02-04T00:33:43;13.07;;;4.78;;
32874;SDS011;40468;42.128;24.750;2023-02-04T00:35:15;10.18;;;4.68;;
32874;SDS011;40468;42.128;24.750;2023-02-04T00:36:46;11.57;;;5.60;;
32874;SDS011;40468;42.128;24.750;2023-02-04T00:38:18;10.35;;;5.20;;
32874;SDS011;40468;42.128;24.750;2023-02-04T00:39:52;11.63;;;5.18;;
32874;SDS011;40468;42.128;24.750;2023-02-04T00:41:23;12.48;;;5.25;;
32874;SDS011;40468;42.128;24.750;2023-02-04T00:42:55;12.07;;;5.45;;
32874;SDS011;40468;42.128;24.750;2023-02-04T00:44:28;10.35;;;4.78;;
32874;SDS011;40468;42.128;24.750;2023-02-04T00:46:00;8.40;;;4.40;;
32874;SDS011;40468;42.128;24.750;2023-02-04T00:47:32;12.23;;;5.75;;
32874;SDS011;40468;42.128;24.750;2023-02-04T00:49:04;12.20;;;4.93;;
32874;SDS011;40468;42.128;24.750;2023-02-04T00:50:39;12.05;;;5.40;;
32874;SDS011;40468;42.128;24.750;2023-02-04T00:52:11;11.65;;;5.60;;
32874;SDS011;40468;42.128;24.750;2023-02-04T00:53:43;11.75;;;5.55;;
32874;SDS011;40468;42.128;24.750;2023-02-04T00:55:15;9.38;;;4.72;;
32874;SDS011;40468;42.128;24.750;2023-02-04T00:56:47;10.18;;;4.88;;
32874;SDS011;40468;42.128;24.750;2023-02-04T00:58:19;10.18;;;4.93;;
32874;SDS011;40468;42.128;24.750;2023-02-04T00:59:51;8.98;;;4.57;;
32874;SDS011;40468;42.128;24.750;2023-02-04T01:01:23;9.00;;;4.43;;
32874;SDS011;40468;42.128;24.750;2023-02-04T01:02:54;9.32;;;4.22;;
32874;SDS011;40468;42.128;24.750;2023-02-04T01:04:26;7.38;;;4.25;;
32874;SDS011;40468;42.128;24.750;2023-02-04T01:05:58;9.85;;;4.07;;
32874;SDS011;40468;42.128;24.750;2023-02-04T01:07:30;7.25;;;4.07;;
32874;SDS011;40468;42.128;24.750;2023-02-04T01:09:01;7.80;;;4.38;;
32874;SDS011;40468;42.128;24.750;2023-02-04T01:10:33;7.67;;;3.67;;
32874;SDS011;40468;42.128;24.750;2023-02-04T01:12:05;7.45;;;3.55;;
32874;SDS011;40468;42.128;24.750;2023-02-04T01:13:36;9.88;;;4.20;;
32874;SDS011;40468;42.128;24.750;2023-02-04T01:15:10;9.95;;;4.28;;
32874;SDS011;40468;42.128;24.750;2023-02-04T01:18:12;7.97;;;3.95;;
32874;SDS011;40468;42.128;24.750;2023-02-04T01:19:44;10.48;;;4.70;;
32874;SDS011;40468;42.128;24.750;2023-02-04T01:21:16;11.15;;;4.43;;
32874;SDS011;40468;42.128;24.750;2023-02-04T01:22:48;10.85;;;4.63;;
32874;SDS011;40468;42.128;24.750;2023-02-04T01:24:20;15.55;;;6.35;;
32874;SDS011;40468;42.128;24.750;2023-02-04T01:25:52;11.98;;;6.45;;
32874;SDS011;40468;42.128;24.750;2023-02-04T01:27:23;12.75;;;6.43;;
32874;SDS011;40468;42.128;24.750;2023-02-04T01:28:55;14.82;;;6.65;;
32874;SDS011;40468;42.128;24.750;2023-02-04T01:30:28;14.25;;;6.78;;
32874;SDS011;40468;42.128;24.750;2023-02-04T01:33:31;14.80;;;6.80;;
32874;SDS011;40468;42.128;24.750;2023-02-04T01:35:04;14.93;;;6.63;;
32874;SDS011;40468;42.128;24.750;2023-02-04T01:36:36;18.60;;;7.43;;
32874;SDS011;40468;42.128;24.750;2023-02-04T01:38:07;11.80;;;6.32;;
32874;SDS011;40468;42.128;24.750;2023-02-04T01:39:39;20.05;;;6.25;;
32874;SDS011;40468;42.128;24.750;2023-02-04T01:41:11;12.63;;;5.88;;
32874;SDS011;40468;42.128;24.750;2023-02-04T01:42:43;13.60;;;5.70;;
32874;SDS011;40468;42.128;24.750;2023-02-04T01:44:15;10.68;;;5.93;;
32874;SDS011;40468;42.128;24.750;2023-02-04T01:45:47;11.10;;;5.57;;
32874;SDS011;40468;42.128;24.750;2023-02-04T01:47:20;16.98;;;6.03;;
32874;SDS011;40468;42.128;24.750;2023-02-04T01:48:52;13.82;;;6.72;;
32874;SDS011;40468;42.128;24.750;2023-02-04T01:50:23;18.55;;;6.13;;
32874;SDS011;40468;42.128;24.750;2023-02-04T01:51:55;15.98;;;6.43;;
32874;SDS011;40468;42.128;24.750;2023-02-04T01:53:27;16.30;;;7.28;;
32874;SDS011;40468;42.128;24.750;2023-02-04T01:54:59;19.17;;;7.50;;
32874;SDS011;40468;42.128;24.750;2023-02-04T01:56:31;12.80;;;6.47;;
32874;SDS011;40468;42.128;24.750;2023-02-04T01:58:03;14.93;;;7.68;;
32874;SDS011;40468;42.128;24.750;2023-02-04T01:59:34;13.57;;;7.68;;
32874;SDS011;40468;42.128;24.750;2023-02-04T02:01:12;16.73;;;7.82;;
32874;SDS011;40468;42.128;24.750;2023-02-04T02:02:45;14.65;;;6.65;;
32874;SDS011;40468;42.128;24.750;2023-02-04T02:04:20;11.98;;;6.38;;
32874;SDS011;40468;42.128;24.750;2023-02-04T02:05:59;14.35;;;5.97;;
32874;SDS011;40468;42.128;24.750;2023-02-04T02:07:31;16.33;;;6.45;;
32874;SDS011;40468;42.128;24.750;2023-02-04T02:09:02;16.02;;;6.15;;
32874;SDS011;40468;42.128;24.750;2023-02-04T02:10:34;13.88;;;6.13;;
32874;SDS011;40468;42.128;24.750;2023-02-04T02:12:08;13.82;;;5.55;;
32874;SDS011;40468;42.128;24.750;2023-02-04T02:13:39;12.02;;;5.97;;
32874;SDS011;40468;42.128;24.750;2023-02-04T02:15:11;12.57;;;5.90;;
32874;SDS011;40468;42.128;24.750;2023-02-04T02:18:17;16.17;;;6.25;;
32874;SDS011;40468;42.128;24.750;2023-02-04T02:19:49;15.48;;;5.93;;
32874;SDS011;40468;42.128;24.750;2023-02-04T02:21:25;12.65;;;6.28;;
32874;SDS011;40468;42.128;24.750;2023-02-04T02:23:04;11.63;;;6.00;;
32874;SDS011;40468;42.128;24.750;2023-02-04T02:24:45;12.13;;;5.95;;
32874;SDS011;40468;42.128;24.750;2023-02-04T02:26:17;11.82;;;5.97;;
32874;SDS011;40468;42.128;24.750;2023-02-04T02:27:49;12.43;;;6.22;;
32874;SDS011;40468;42.128;24.750;2023-02-04T02:29:22;17.90;;;6.70;;
32874;SDS011;40468;42.128;24.750;2023-02-04T02:30:54;10.60;;;5.97;;
32874;SDS011;40468;42.128;24.750;2023-02-04T02:32:26;10.98;;;5.90;;
32874;SDS011;40468;42.128;24.750;2023-02-04T02:33:57;12.95;;;6.57;;
32874;SDS011;40468;42.128;24.750;2023-02-04T02:35:29;11.95;;;5.93;;
32874;SDS011;40468;42.128;24.750;2023-02-04T02:37:01;11.25;;;5.22;;
32874;SDS011;40468;42.128;24.750;2023-02-04T02:38:33;13.45;;;6.50;;
32874;SDS011;40468;42.128;24.750;2023-02-04T02:40:07;13.05;;;6.55;;
32874;SDS011;40468;42.128;24.750;2023-02-04T02:41:40;14.68;;;6.72;;
32874;SDS011;40468;42.128;24.750;2023-02-04T02:43:12;14.05;;;6.65;;
32874;SDS011;40468;42.128;24.750;2023-02-04T02:44:46;16.58;;;7.05;;
32874;SDS011;40468;42.128;24.750;2023-02-04T02:46:20;13.10;;;6.13;;
32874;SDS011;40468;42.128;24.750;2023-02-04T02:47:52;15.45;;;6.38;;
32874;SDS011;40468;42.128;24.750;2023-02-04T02:49:30;18.17;;;6.63;;
32874;SDS011;40468;42.128;24.750;2023-02-04T02:51:04;14.43;;;6.55;;
32874;SDS011;40468;42.128;24.750;2023-02-04T02:52:36;16.73;;;6.75;;
32874;SDS011;40468;42.128;24.750;2023-02-04T02:54:11;13.73;;;6.90;;
32874;SDS011;40468;42.128;24.750;2023-02-04T02:55:53;11.82;;;6.47;;
32874;SDS011;40468;42.128;24.750;2023-02-04T02:58:55;13.70;;;6.65;;
32874;SDS011;40468;42.128;24.750;2023-02-04T03:00:36;18.15;;;6.82;;
32874;SDS011;40468;42.128;24.750;2023-02-04T03:02:08;12.13;;;6.28;;
32874;SDS011;40468;42.128;24.750;2023-02-04T03:03:44;13.57;;;6.40;;
32874;SDS011;40468;42.128;24.750;2023-02-04T03:05:19;10.90;;;5.93;;
32874;SDS011;40468;42.128;24.750;2023-02-04T03:06:50;12.77;;;6.57;;
32874;SDS011;40468;42.128;24.750;2023-02-04T03:09:54;8.57;;;5.13;;
32874;SDS011;40468;42.128;24.750;2023-02-04T03:11:27;13.07;;;5.90;;
32874;SDS011;40468;42.128;24.750;2023-02-04T03:14:31;13.25;;;6.00;;
32874;SDS011;40468;42.128;24.750;2023-02-04T03:16:04;16.15;;;6.78;;
32874;SDS011;40468;42.128;24.750;2023-02-04T03:17:37;17.88;;;7.40;;
32874;SDS011;40468;42.128;24.750;2023-02-04T03:19:10;17.08;;;6.97;;
32874;SDS011;40468;42.128;24.750;2023-02-04T03:20:43;16.58;;;7.32;;
32874;SDS011;40468;42.128;24.750;2023-02-04T03:22:14;12.90;;;6.57;;
32874;SDS011;40468;42.128;24.750;2023-02-04T03:23:46;17.08;;;6.38;;
32874;SDS011;40468;42.128;24.750;2023-02-04T03:25:17;16.75;;;7.18;;
32874;SDS011;40468;42.128;24.750;2023-02-04T03:26:51;15.30;;;6.50;;
32874;SDS011;40468;42.128;24.750;2023-02-04T03:28:23;17.63;;;7.35;;
32874;SDS011;40468;42.128;24.750;2023-02-04T03:29:55;17.50;;;7.07;;
32874;SDS011;40468;42.128;24.750;2023-02-04T03:31:27;13.38;;;6.32;;
32874;SDS011;40468;42.128;24.750;2023-02-04T03:32:59;19.05;;;6.95;;
32874;SDS011;40468;42.128;24.750;2023-02-04T03:34:31;17.27;;;7.05;;
32874;SDS011;40468;42.128;24.750;2023-02-04T03:36:03;16.95;;;6.18;;
32874;SDS011;40468;42.128;24.750;2023-02-04T03:37:34;12.45;;;6.20;;
32874;SDS011;40468;42.128;24.750;2023-02-04T03:39:06;14.85;;;6.38;;
32874;SDS011;40468;42.128;24.750;2023-02-04T03:40:38;14.25;;;6.35;;
32874;SDS011;40468;42.128;24.750;2023-02-04T03:42:11;16.80;;;6.00;;
32874;SDS011;40468;42.128;24.750;2023-02-04T03:43:43;12.65;;;6.20;;
32874;SDS011;40468;42.128;24.750;2023-02-04T03:45:15;12.98;;;5.63;;
32874;SDS011;40468;42.128;24.750;2023-02-04T03:46:46;11.95;;;5.82;;
32874;SDS011;40468;42.128;24.750;2023-02-04T03:48:18;15.60;;;6.50;;
32874;SDS011;40468;42.128;24.750;2023-02-04T03:49:49;12.57;;;5.65;;
32874;SDS011;40468;42.128;24.750;2023-02-04T03:51:21;12.38;;;6.00;;
32874;SDS011;40468;42.128;24.750;2023-02-04T03:52:52;13.75;;;6.18;;
32874;SDS011;40468;42.128;24.750;2023-02-04T03:54:24;11.65;;;6.00;;
32874;SDS011;40468;42.128;24.750;2023-02-04T03:55:55;13.65;;;6.45;;
32874;SDS011;40468;42.128;24.750;2023-02-04T03:57:28;17.50;;;6.75;;
32874;SDS011;40468;42.128;24.750;2023-02-04T03:59:00;14.93;;;6.40;;
32874;SDS011;40468;42.128;24.750;2023-02-04T04:00:32;11.70;;;6.30;;
32874;SDS011;40468;42.128;24.750;2023-02-04T04:02:03;17.02;;;6.45;;
32874;SDS011;40468;42.128;24.750;2023-02-04T04:03:35;11.27;;;5.65;;
32874;SDS011;40468;42.128;24.750;2023-02-04T04:05:07;16.80;;;6.57;;
32874;SDS011;40468;42.128;24.750;2023-02-04T04:06:39;15.00;;;6.50;;
32874;SDS011;40468;42.128;24.750;2023-02-04T04:08:11;18.45;;;6.80;;
32874;SDS011;40468;42.128;24.750;2023-02-04T04:09:42;16.38;;;6.50;;
32874;SDS011;40468;42.128;24.750;2023-02-04T04:11:14;16.45;;;6.13;;
32874;SDS011;40468;42.128;24.750;2023-02-04T04:12:48;16.48;;;6.55;;
32874;SDS011;40468;42.128;24.750;2023-02-04T04:14:20;12.93;;;6.13;;
32874;SDS011;40468;42.128;24.750;2023-02-04T04:15:52;17.73;;;6.75;;
32874;SDS011;40468;42.128;24.750;2023-02-04T04:17:24;12.27;;;6.40;;
32874;SDS011;40468;42.128;24.750;2023-02-04T04:18:55;13.32;;;6.57;;
32874;SDS011;40468;42.128;24.750;2023-02-04T04:20:27;15.65;;;6.70;;
32874;SDS011;40468;42.128;24.750;2023-02-04T04:21:58;16.65;;;6.35;;
32874;SDS011;40468;42.128;24.750;2023-02-04T04:23:30;14.77;;;6.40;;
32874;SDS011;40468;42.128;24.750;2023-02-04T04:25:02;16.85;;;6.10;;
32874;SDS011;40468;42.128;24.750;2023-02-04T04:26:34;15.45;;;6.90;;
32874;SDS011;40468;42.128;24.750;2023-02-04T04:28:07;15.10;;;6.53;;
32874;SDS011;40468;42.128;24.750;2023-02-04T04:29:39;13.98;;;6.88;;
32874;SDS011;40468;42.128;24.750;2023-02-04T04:31:11;16.00;;;6.13;;
32874;SDS011;40468;42.128;24.750;2023-02-04T04:32:43;12.32;;;6.70;;
32874;SDS011;40468;42.128;24.750;2023-02-04T04:34:14;15.18;;;7.32;;
32874;SDS011;40468;42.128;24.750;2023-02-04T04:35:46;13.65;;;6.30;;
32874;SDS011;40468;42.128;24.750;2023-02-04T04:37:18;17.73;;;6.45;;
32874;SDS011;40468;42.128;24.750;2023-02-04T04:38:50;16.27;;;6.05;;
32874;SDS011;40468;42.128;24.750;2023-02-04T04:40:20;13.00;;;6.13;;
32874;SDS011;40468;42.128;24.750;2023-02-04T04:41:52;11.48;;;5.80;;
32874;SDS011;40468;42.128;24.750;2023-02-04T04:43:26;13.88;;;6.05;;
32874;SDS011;40468;42.128;24.750;2023-02-04T04:44:58;18.45;;;7.43;;
32874;SDS011;40468;42.128;24.750;2023-02-04T04:46:29;45.30;;;14.18;;
32874;SDS011;40468;42.128;24.750;2023-02-04T04:48:01;56.38;;;18.98;;
32874;SDS011;40468;42.128;24.750;2023-02-04T04:49:34;49.70;;;17.55;;
32874;SDS011;40468;42.128;24.750;2023-02-04T04:51:05;53.17;;;17.80;;
32874;SDS011;40468;42.128;24.750;2023-02-04T04:52:37;88.85;;;28.27;;
32874;SDS011;40468;42.128;24.750;2023-02-04T04:54:08;126.55;;;39.13;;
32874;SDS011;40468;42.128;24.750;2023-02-04T04:55:39;134.60;;;41.08;;
32874;SDS011;40468;42.128;24.750;2023-02-04T04:57:11;164.73;;;50.17;;
32874;SDS011;40468;42.128;24.750;2023-02-04T04:58:43;172.88;;;53.20;;
32874;SDS011;40468;42.128;24.750;2023-02-04T05:00:16;169.18;;;53.58;;
32874;SDS011;40468;42.128;24.750;2023-02-04T05:01:49;162.63;;;50.38;;
32874;SDS011;40468;42.128;24.750;2023-02-04T05:03:21;152.02;;;47.08;;
32874;SDS011;40468;42.128;24.750;2023-02-04T05:04:53;158.20;;;46.33;;
32874;SDS011;40468;42.128;24.750;2023-02-04T05:06:25;127.05;;;42.38;;
32874;SDS011;40468;42.128;24.750;2023-02-04T05:07:56;95.22;;;33.08;;
32874;SDS011;40468;42.128;24.750;2023-02-04T05:09:28;98.65;;;32.35;;
32874;SDS011;40468;42.128;24.750;2023-02-04T05:11:00;99.53;;;33.58;;
32874;SDS011;40468;42.128;24.750;2023-02-04T05:12:32;78.00;;;26.83;;
32874;SDS011;40468;42.128;24.750;2023-02-04T05:14:05;97.20;;;30.80;;
32874;SDS011;40468;42.128;24.750;2023-02-04T05:15:37;99.72;;;32.53;;
32874;SDS011;40468;42.128;24.750;2023-02-04T05:17:09;73.40;;;26.17;;
32874;SDS011;40468;42.128;24.750;2023-02-04T05:18:40;75.03;;;27.05;;
32874;SDS011;40468;42.128;24.750;2023-02-04T05:20:12;48.72;;;18.48;;
32874;SDS011;40468;42.128;24.750;2023-02-04T05:21:44;37.65;;;14.35;;
32874;SDS011;40468;42.128;24.750;2023-02-04T05:23:16;34.95;;;13.70;;
32874;SDS011;40468;42.128;24.750;2023-02-04T05:24:48;39.30;;;15.48;;
32874;SDS011;40468;42.128;24.750;2023-02-04T05:26:20;34.08;;;14.65;;
32874;SDS011;40468;42.128;24.750;2023-02-04T05:27:52;29.73;;;12.02;;
32874;SDS011;40468;42.128;24.750;2023-02-04T05:29:25;33.92;;;13.63;;
32874;SDS011;40468;42.128;24.750;2023-02-04T05:30:57;33.00;;;12.75;;
32874;SDS011;40468;42.128;24.750;2023-02-04T05:32:29;31.98;;;11.00;;
32874;SDS011;40468;42.128;24.750;2023-02-04T05:34:01;25.95;;;10.82;;
32874;SDS011;40468;42.128;24.750;2023-02-04T05:35:33;32.25;;;14.18;;
32874;SDS011;40468;42.128;24.750;2023-02-04T05:37:05;28.13;;;14.00;;
32874;SDS011;40468;42.128;24.750;2023-02-04T05:38:37;29.73;;;12.18;;
32874;SDS011;40468;42.128;24.750;2023-02-04T05:40:09;25.50;;;11.07;;
32874;SDS011;40468;42.128;24.750;2023-02-04T05:41:42;23.85;;;10.10;;
32874;SDS011;40468;42.128;24.750;2023-02-04T05:43:13;18.55;;;8.13;;
32874;SDS011;40468;42.128;24.750;2023-02-04T05:44:47;26.08;;;9.65;;
32874;SDS011;40468;42.128;24.750;2023-02-04T05:46:19;21.75;;;10.55;;
32874;SDS011;40468;42.128;24.750;2023-02-04T05:47:50;21.48;;;9.57;;
32874;SDS011;40468;42.128;24.750;2023-02-04T05:49:21;24.92;;;9.48;;
32874;SDS011;40468;42.128;24.750;2023-02-04T05:50:54;20.80;;;9.00;;
32874;SDS011;40468;42.128;24.750;2023-02-04T05:52:26;19.23;;;8.52;;
32874;SDS011;40468;42.128;24.750;2023-02-04T05:53:57;28.60;;;9.70;;
32874;SDS011;40468;42.128;24.750;2023-02-04T05:55:29;29.40;;;11.90;;
32874;SDS011;40468;42.128;24.750;2023-02-04T05:57:02;24.58;;;9.32;;
32874;SDS011;40468;42.128;24.750;2023-02-04T05:58:33;19.23;;;9.05;;
32874;SDS011;40468;42.128;24.750;2023-02-04T06:00:07;21.40;;;9.57;;
32874;SDS011;40468;42.128;24.750;2023-02-04T06:01:41;23.23;;;8.90;;
32874;SDS011;40468;42.128;24.750;2023-02-04T06:03:13;20.75;;;9.10;;
32874;SDS011;40468;42.128;24.750;2023-02-04T06:04:48;20.48;;;9.27;;
32874;SDS011;40468;42.128;24.750;2023-02-04T06:06:20;19.27;;;8.27;;
32874;SDS011;40468;42.128;24.750;2023-02-04T06:07:52;20.42;;;8.90;;
32874;SDS011;40468;42.128;24.750;2023-02-04T06:09:24;24.13;;;10.57;;
32874;SDS011;40468;42.128;24.750;2023-02-04T06:10:55;21.67;;;9.68;;
32874;SDS011;40468;42.128;24.750;2023-02-04T06:12:27;18.85;;;8.77;;
32874;SDS011;40468;42.128;24.750;2023-02-04T06:13:59;19.48;;;9.30;;
32874;SDS011;40468;42.128;24.750;2023-02-04T06:15:32;21.48;;;9.55;;
32874;SDS011;40468;42.128;24.750;2023-02-04T06:17:04;20.23;;;9.07;;
32874;SDS011;40468;42.128;24.750;2023-02-04T06:18:36;18.00;;;8.73;;
32874;SDS011;40468;42.128;24.750;2023-02-04T06:20:09;19.10;;;8.85;;
32874;SDS011;40468;42.128;24.750;2023-02-04T06:21:43;19.13;;;9.32;;
32874;SDS011;40468;42.128;24.750;2023-02-04T06:23:15;18.95;;;8.00;;
32874;SDS011;40468;42.128;24.750;2023-02-04T06:24:47;16.10;;;7.75;;
32874;SDS011;40468;42.128;24.750;2023-02-04T06:26:19;17.70;;;7.90;;
32874;SDS011;40468;42.128;24.750;2023-02-04T06:27:50;14.57;;;7.20;;
32874;SDS011;40468;42.128;24.750;2023-02-04T06:29:22;16.15;;;7.68;;
32874;SDS011;40468;42.128;24.750;2023-02-04T06:30:55;17.23;;;8.40;;
32874;SDS011;40468;42.128;24.750;2023-02-04T06:32:27;17.33;;;8.15;;
32874;SDS011;40468;42.128;24.750;2023-02-04T06:33:59;22.80;;;9.15;;
32874;SDS011;40468;42.128;24.750;2023-02-04T06:35:31;23.30;;;9.10;;
32874;SDS011;40468;42.128;24.750;2023-02-04T06:37:03;22.48;;;9.75;;
32874;SDS011;40468;42.128;24.750;2023-02-04T06:38:35;23.20;;;9.98;;
32874;SDS011;40468;42.128;24.750;2023-02-04T06:40:07;22.48;;;9.55;;
32874;SDS011;40468;42.128;24.750;2023-02-04T06:43:12;18.95;;;9.50;;
32874;SDS011;40468;42.128;24.750;2023-02-04T06:44:44;28.23;;;10.80;;
32874;SDS011;40468;42.128;24.750;2023-02-04T06:46:17;28.25;;;10.35;;
32874;SDS011;40468;42.128;24.750;2023-02-04T06:47:48;27.27;;;10.68;;
32874;SDS011;40468;42.128;24.750;2023-02-04T06:49:20;24.00;;;11.13;;
32874;SDS011;40468;42.128;24.750;2023-02-04T06:50:51;29.02;;;12.10;;
32874;SDS011;40468;42.128;24.750;2023-02-04T06:52:23;26.77;;;11.13;;
32874;SDS011;40468;42.128;24.750;2023-02-04T06:53:54;23.60;;;10.52;;
32874;SDS011;40468;42.128;24.750;2023-02-04T06:55:25;55.40;;;25.35;;
32874;SDS011;40468;42.128;24.750;2023-02-04T06:56:58;42.75;;;17.80;;
32874;SDS011;40468;42.128;24.750;2023-02-04T06:58:35;56.78;;;22.60;;
32874;SDS011;40468;42.128;24.750;2023-02-04T07:00:08;32.50;;;12.75;;
32874;SDS011;40468;42.128;24.750;2023-02-04T07:01:44;41.03;;;17.73;;
32874;SDS011;40468;42.128;24.750;2023-02-04T07:04:47;80.35;;;33.90;;
32874;SDS011;40468;42.128;24.750;2023-02-04T07:06:19;25.00;;;10.85;;
32874;SDS011;40468;42.128;24.750;2023-02-04T07:07:51;28.63;;;11.85;;
32874;SDS011;40468;42.128;24.750;2023-02-04T07:09:23;37.67;;;15.35;;
32874;SDS011;40468;42.128;24.750;2023-02-04T07:10:54;87.18;;;36.05;;
32874;SDS011;40468;42.128;24.750;2023-02-04T07:12:25;46.95;;;19.42;;
32874;SDS011;40468;42.128;24.750;2023-02-04T07:13:57;35.00;;;14.23;;
32874;SDS011;40468;42.128;24.750;2023-02-04T07:15:29;36.72;;;12.98;;
32874;SDS011;40468;42.128;24.750;2023-02-04T07:17:03;27.45;;;10.73;;
32874;SDS011;40468;42.128;24.750;2023-02-04T07:18:35;21.77;;;10.43;;
32874;SDS011;40468;42.128;24.750;2023-02-04T07:20:07;26.00;;;11.10;;
32874;SDS011;40468;42.128;24.750;2023-02-04T07:21:40;17.35;;;9.70;;
32874;SDS011;40468;42.128;24.750;2023-02-04T07:23:11;21.17;;;8.52;;
32874;SDS011;40468;42.128;24.750;2023-02-04T07:24:43;18.58;;;9.13;;
32874;SDS011;40468;42.128;24.750;2023-02-04T07:26:15;17.45;;;8.15;;
32874;SDS011;40468;42.128;24.750;2023-02-04T07:27:46;17.60;;;8.60;;
32874;SDS011;40468;42.128;24.750;2023-02-04T07:29:18;17.30;;;8.30;;
32874;SDS011;40468;42.128;24.750;2023-02-04T07:30:50;20.48;;;9.00;;
32874;SDS011;40468;42.128;24.750;2023-02-04T07:32:24;29.25;;;10.32;;
32874;SDS011;40468;42.128;24.750;2023-02-04T07:33:56;16.50;;;8.35;;
32874;SDS011;40468;42.128;24.750;2023-02-04T07:35:28;18.92;;;8.15;;
32874;SDS011;40468;42.128;24.750;2023-02-04T07:37:00;20.55;;;8.20;;
32874;SDS011;40468;42.128;24.750;2023-02-04T07:38:32;20.95;;;7.97;;
32874;SDS011;40468;42.128;24.750;2023-02-04T07:40:05;18.48;;;7.35;;
32874;SDS011;40468;42.128;24.750;2023-02-04T07:41:37;16.90;;;6.93;;
32874;SDS011;40468;42.128;24.750;2023-02-04T07:43:09;17.00;;;7.38;;
32874;SDS011;40468;42.128;24.750;2023-02-04T07:44:41;19.00;;;7.05;;
32874;SDS011;40468;42.128;24.750;2023-02-04T07:46:12;19.05;;;7.03;;
32874;SDS011;40468;42.128;24.750;2023-02-04T07:47:45;14.48;;;5.20;;
32874;SDS011;40468;42.128;24.750;2023-02-04T07:49:17;9.75;;;4.45;;
32874;SDS011;40468;42.128;24.750;2023-02-04T07:50:49;12.48;;;3.85;;
32874;SDS011;40468;42.128;24.750;2023-02-04T07:52:21;10.50;;;3.88;;
32874;SDS011;40468;42.128;24.750;2023-02-04T07:53:54;9.48;;;3.75;;
32874;SDS011;40468;42.128;24.750;2023-02-04T07:55:26;10.93;;;3.60;;
32874;SDS011;40468;42.128;24.750;2023-02-04T07:56:58;11.20;;;3.53;;
32874;SDS011;40468;42.128;24.750;2023-02-04T07:58:30;14.40;;;4.75;;
32874;SDS011;40468;42.128;24.750;2023-02-04T08:00:02;21.40;;;7.15;;
32874;SDS011;40468;42.128;24.750;2023-02-04T08:01:34;13.05;;;5.47;;
32874;SDS011;40468;42.128;24.750;2023-02-04T08:03:07;14.68;;;4.72;;
32874;SDS011;40468;42.128;24.750;2023-02-04T08:04:39;9.55;;;3.33;;
32874;SDS011;40468;42.128;24.750;2023-02-04T08:06:11;8.10;;;2.70;;
32874;SDS011;40468;42.128;24.750;2023-02-04T08:07:43;7.60;;;2.67;;
32874;SDS011;40468;42.128;24.750;2023-02-04T08:09:14;5.15;;;2.40;;
32874;SDS011;40468;42.128;24.750;2023-02-04T08:10:46;10.25;;;2.85;;
32874;SDS011;40468;42.128;24.750;2023-02-04T08:12:18;5.22;;;1.90;;
32874;SDS011;40468;42.128;24.750;2023-02-04T08:13:50;3.28;;;1.90;;
32874;SDS011;40468;42.128;24.750;2023-02-04T08:15:22;8.20;;;2.53;;
32874;SDS011;40468;42.128;24.750;2023-02-04T08:16:54;2.58;;;1.55;;
32874;SDS011;40468;42.128;24.750;2023-02-04T08:18:27;4.53;;;1.95;;
32874;SDS011;40468;42.128;24.750;2023-02-04T08:21:31;10.82;;;1.92;;
32874;SDS011;40468;42.128;24.750;2023-02-04T08:23:03;5.63;;;2.33;;
32874;SDS011;40468;42.128;24.750;2023-02-04T08:24:34;3.38;;;1.80;;
32874;SDS011;40468;42.128;24.750;2023-02-04T08:26:07;3.70;;;2.10;;
32874;SDS011;40468;42.128;24.750;2023-02-04T08:27:39;5.88;;;2.28;;
32874;SDS011;40468;42.128;24.750;2023-02-04T08:29:11;4.18;;;1.90;;
32874;SDS011;40468;42.128;24.750;2023-02-04T08:30:43;2.92;;;1.70;;
32874;SDS011;40468;42.128;24.750;2023-02-04T08:32:15;4.65;;;2.10;;
32874;SDS011;40468;42.128;24.750;2023-02-04T08:33:48;5.95;;;2.28;;
32874;SDS011;40468;42.128;24.750;2023-02-04T08:35:20;5.93;;;2.55;;
32874;SDS011;40468;42.128;24.750;2023-02-04T08:36:52;13.15;;;4.22;;
32874;SDS011;40468;42.128;24.750;2023-02-04T08:38:24;8.73;;;2.05;;
32874;SDS011;40468;42.128;24.750;2023-02-04T08:39:56;4.43;;;1.80;;
32874;SDS011;40468;42.128;24.750;2023-02-04T08:41:28;5.95;;;1.63;;
32874;SDS011;40468;42.128;24.750;2023-02-04T08:43:00;4.65;;;1.75;;
32874;SDS011;40468;42.128;24.750;2023-02-04T08:44:32;9.65;;;1.70;;
32874;SDS011;40468;42.128;24.750;2023-02-04T08:46:03;2.78;;;1.00;;
32874;SDS011;40468;42.128;24.750;2023-02-04T08:47:36;30.10;;;17.77;;
32874;SDS011;40468;42.128;24.750;2023-02-04T08:49:09;37.72;;;19.73;;
32874;SDS011;40468;42.128;24.750;2023-02-04T08:52:13;4.88;;;1.60;;
32874;SDS011;40468;42.128;24.750;2023-02-04T08:53:45;4.03;;;1.17;;
32874;SDS011;40468;42.128;24.750;2023-02-04T08:55:17;8.45;;;1.27;;
32874;SDS011;40468;42.128;24.750;2023-02-04T08:56:49;5.50;;;2.78;;
32874;SDS011;40468;42.128;24.750;2023-02-04T08:58:21;24.73;;;13.35;;
32874;SDS011;40468;42.128;24.750;2023-02-04T08:59:53;4.78;;;2.75;;
32874;SDS011;40468;42.128;24.750;2023-02-04T09:01:25;5.38;;;1.42;;
32874;SDS011;40468;42.128;24.750;2023-02-04T09:02:57;5.15;;;1.15;;
32874;SDS011;40468;42.128;24.750;2023-02-04T09:04:30;3.88;;;0.98;;
32874;SDS011;40468;42.128;24.750;2023-02-04T09:07:34;4.30;;;1.23;;
32874;SDS011;40468;42.128;24.750;2023-02-04T09:09:06;3.72;;;1.02;;
32874;SDS011;40468;42.128;24.750;2023-02-04T09:10:38;3.45;;;1.30;;
32874;SDS011;40468;42.128;24.750;2023-02-04T09:12:10;4.32;;;1.70;;
32874;SDS011;40468;42.128;24.750;2023-02-04T09:13:42;3.00;;;1.60;;
32874;SDS011;40468;42.128;24.750;2023-02-04T09:15:14;3.60;;;1.08;;